createdAt,value
2023-04-12T00:01:23.721Z,8.2
2023-04-12T00:07:16.591Z,8.1
2023-04-12T00:13:07.637Z,8.2
2023-04-12T00:18:44.571Z,8.2
2023-04-12T00:24:36.023Z,8.2
2023-04-12T00:30:26.763Z,8.3
2023-04-12T00:36:18.971Z,8.2
2023-04-12T00:41:54.994Z,8.3
2023-04-12T00:47:30.895Z,8.3
2023-04-12T00:53:07.171Z,8.3
2023-04-12T00:58:43.178Z,8.3
2023-04-12T01:04:20.345Z,8.2
2023-04-12T01:10:12.402Z,8.1
2023-04-12T01:16:03.599Z,8.2
2023-04-12T01:21:39.545Z,8
2023-04-12T01:27:30.967Z,8
2023-04-12T01:32:35.586Z,7.9
2023-04-12T01:38:12.056Z,7.9
2023-04-12T01:43:48.314Z,7.9
2023-04-12T01:49:23.892Z,7.9
2023-04-12T01:55:00.375Z,7.8
2023-04-12T02:00:38.435Z,7.6
2023-04-12T02:06:16.701Z,7.4
2023-04-12T02:11:52.737Z,7.4
2023-04-12T02:17:29.646Z,7.6
2023-04-12T02:23:04.691Z,7.7
2023-04-12T02:28:40.185Z,7.9
2023-04-12T02:33:45.429Z,7.9
2023-04-12T02:39:21.170Z,7.8
2023-04-12T02:44:42.508Z,7.6
2023-04-12T02:50:04.911Z,7.6
2023-04-12T02:55:40.770Z,7.7
2023-04-12T03:01:17.177Z,7.8
2023-04-12T03:06:55.242Z,7.7
2023-04-12T03:12:30.722Z,7.7
2023-04-12T03:18:07.688Z,7.8
2023-04-12T03:23:44.031Z,7.8
2023-04-12T03:29:19.426Z,7.9
2023-04-12T03:34:55.538Z,8.1
2023-04-12T03:40:32.203Z,8.1
2023-04-12T03:46:11.111Z,8
2023-04-12T03:51:59.701Z,8.1
2023-04-12T03:57:36.815Z,8.1
2023-04-12T04:03:13.334Z,8.1
2023-04-12T04:08:52.050Z,8
2023-04-12T04:14:28.831Z,7.9
2023-04-12T04:20:04.693Z,8
2023-04-12T04:25:25.418Z,7.9
2023-04-12T04:31:01.342Z,7.9
2023-04-12T04:36:37.566Z,7.9
2023-04-12T04:42:13.830Z,7.8
2023-04-12T04:47:49.789Z,7.9
2023-04-12T04:53:25.551Z,7.9
2023-04-12T04:59:04.877Z,7.9
2023-04-12T05:04:44.094Z,8
2023-04-12T05:10:35.781Z,8.1
2023-04-12T05:16:33.799Z,8.2
2023-04-12T05:22:10.239Z,8.3
2023-04-12T05:27:45.988Z,8.3
2023-04-12T05:33:21.952Z,8.4
2023-04-12T05:38:57.525Z,8.3
2023-04-12T05:44:33.253Z,8.4
2023-04-12T05:50:10.201Z,8.4
2023-04-12T05:55:55.409Z,8.6
2023-04-12T06:01:32.526Z,8.6
2023-04-12T06:07:25.115Z,8.8
2023-04-12T06:13:01.011Z,8.7
2023-04-12T06:18:36.938Z,8.6
2023-04-12T06:24:13.078Z,8.8
2023-04-12T06:29:49.188Z,8.9
2023-04-12T06:35:25.587Z,9
2023-04-12T06:41:01.995Z,9.2
2023-04-12T06:46:38.267Z,9.1
2023-04-12T06:52:15.064Z,9
2023-04-12T06:57:20.751Z,9.2
2023-04-12T07:02:59.386Z,9.3
2023-04-12T07:08:30.181Z,10.3
2023-04-12T07:14:01.094Z,10.8
2023-04-12T07:19:38.758Z,10.9
2023-04-12T07:24:58.769Z,11.3
2023-04-12T07:30:35.218Z,10.6
2023-04-12T07:36:28.627Z,10.7
2023-04-12T07:42:05.953Z,11.1
2023-04-12T07:47:30.946Z,11.4
2023-04-12T07:53:07.848Z,11.9
2023-04-12T07:58:46.012Z,11.4
2023-04-12T08:04:26.486Z,10.9
2023-04-12T08:10:03.697Z,10.7
2023-04-12T08:15:39.539Z,10.9
2023-04-12T08:21:16.601Z,11.7
2023-04-12T08:26:53.440Z,12.3
2023-04-12T08:32:29.558Z,12.1
2023-04-12T08:38:27.977Z,12.5
2023-04-12T08:44:31.006Z,12.2
2023-04-12T08:50:21.946Z,12.3
2023-04-12T08:56:13.892Z,12.8
2023-04-12T09:02:06.940Z,12.5
2023-04-12T09:08:01.946Z,12.6
2023-04-12T09:13:25.145Z,13.1
2023-04-12T09:19:18.580Z,13.1
2023-04-12T09:24:53.686Z,13.4
2023-04-12T09:30:45.599Z,13.6
2023-04-12T09:36:23.377Z,13.6
2023-04-12T09:42:29.619Z,13.8
2023-04-12T09:48:25.454Z,13.7
2023-04-12T09:54:18.069Z,14.4
2023-04-12T10:00:10.480Z,14.3
2023-04-12T10:06:07.781Z,14.5
2023-04-12T10:12:02.045Z,14.8
2023-04-12T10:17:41.125Z,14.3
2023-04-12T10:23:36.787Z,14.4
2023-04-12T10:29:29.282Z,15
2023-04-12T10:35:21.211Z,14.6
2023-04-12T10:41:13.925Z,15.1
2023-04-12T10:47:05.818Z,14.9
2023-04-12T10:52:57.435Z,15.1
2023-04-12T10:58:50.062Z,15.9
2023-04-12T11:04:38.657Z,15.1
2023-04-12T11:10:42.359Z,15.1
2023-04-12T11:16:34.700Z,15.3
2023-04-12T11:22:27.878Z,15.3
2023-04-12T11:28:08.920Z,15.4
2023-04-12T11:34:09.234Z,15.4
2023-04-12T11:40:03.226Z,15.1
2023-04-12T11:46:08.585Z,15.4
2023-04-12T11:52:14.054Z,15.4
2023-04-12T11:57:50.883Z,15.9
2023-04-12T12:04:00.851Z,15.8
2023-04-12T12:09:56.209Z,15.6
2023-04-12T12:16:11.594Z,14.9
2023-04-12T12:22:03.628Z,15.1
2023-04-12T12:28:11.129Z,15.4
2023-04-12T12:34:21.227Z,15.1
2023-04-12T12:40:17.975Z,15.3
2023-04-12T12:46:09.954Z,15.8
2023-04-12T12:52:26.682Z,15.3
2023-04-12T12:58:35.090Z,15.3
2023-04-12T13:04:31.000Z,15.3
2023-04-12T13:10:24.280Z,15.4
2023-04-12T13:16:28.941Z,15.1
2023-04-12T13:22:23.126Z,15.4
2023-04-12T13:28:15.402Z,15.3
2023-04-12T13:33:55.095Z,15.7
2023-04-12T13:39:49.587Z,14.6
2023-04-12T13:45:41.334Z,15.7
2023-04-12T13:51:34.703Z,15.4
2023-04-12T13:57:26.847Z,15.1
2023-04-12T14:03:22.224Z,14.9
2023-04-12T14:09:14.225Z,15.1
2023-04-12T14:14:51.538Z,15.2
2023-04-12T14:20:44.638Z,15.1
2023-04-12T14:26:36.440Z,15.2
2023-04-12T14:32:28.760Z,14.9
2023-04-12T14:38:22.645Z,14.6
2023-04-12T14:44:16.626Z,14.6
2023-04-12T14:50:08.926Z,14.9
2023-04-12T14:56:01.149Z,14.4
2023-04-12T15:02:00.578Z,14.3
2023-04-12T15:07:55.504Z,14.5
2023-04-12T15:13:51.119Z,14.3
2023-04-12T15:19:51.755Z,13.9
2023-04-12T15:25:43.705Z,13.8
2023-04-12T15:31:36.592Z,13.9
2023-04-12T15:37:13.960Z,13.7
2023-04-12T15:43:09.289Z,14.5
2023-04-12T15:49:12.129Z,14.9
2023-04-12T15:55:03.126Z,14.8
2023-04-12T16:00:57.055Z,14.8
2023-04-12T16:06:52.428Z,14.4
2023-04-12T16:12:27.724Z,14.4
2023-04-12T16:18:19.607Z,14
2023-04-12T16:23:56.359Z,13.9
2023-04-12T16:29:48.021Z,13.6
2023-04-12T16:35:26.970Z,12.3
2023-04-12T16:41:19.308Z,11.8
2023-04-12T16:47:11.007Z,11.5
2023-04-12T16:53:05.705Z,11.3
2023-04-12T16:58:57.595Z,10.9
2023-04-12T17:04:50.377Z,10.8
2023-04-12T17:10:42.549Z,10.6
2023-04-12T17:16:34.862Z,10.4
2023-04-12T17:22:28.058Z,10.3
2023-04-12T17:28:21.410Z,10.1
2023-04-12T17:34:14.192Z,9.9
2023-04-12T17:39:52.885Z,9.7
2023-04-12T17:45:45.697Z,9.5
2023-04-12T17:51:38.098Z,9.3
2023-04-12T17:57:29.160Z,9.2
2023-04-12T18:03:22.743Z,9.2
2023-04-12T18:09:15.811Z,9.1
2023-04-12T18:15:07.772Z,9.1
2023-04-12T18:21:00.467Z,9.1
2023-04-12T18:26:54.721Z,9
2023-04-12T18:32:46.753Z,8.8
2023-04-12T18:38:39.000Z,8.3
2023-04-12T18:44:31.496Z,8.3
2023-04-12T18:50:23.141Z,8.3
2023-04-12T18:56:02.069Z,8.4
2023-04-12T19:02:15.549Z,8.4
2023-04-12T19:08:09.661Z,8.3
2023-04-12T19:14:03.323Z,8.6
2023-04-12T19:19:56.326Z,8.6
2023-04-12T19:25:52.455Z,8.4
2023-04-12T19:31:45.711Z,8.3
2023-04-12T19:37:42.389Z,8.1
2023-04-12T19:43:37.696Z,7.9
2023-04-12T19:49:31.810Z,8
2023-04-12T19:55:25.567Z,7.9
2023-04-12T20:01:18.072Z,7.7
2023-04-12T20:07:12.333Z,7.4
2023-04-12T20:13:05.112Z,7.3
2023-04-12T20:18:42.712Z,7.1
2023-04-12T20:24:35.413Z,7.1
2023-04-12T20:30:27.638Z,7.2
2023-04-12T20:36:19.495Z,7.3
2023-04-12T20:42:11.627Z,7.4
2023-04-12T20:48:05.307Z,7.6
2023-04-12T20:53:57.626Z,7.6
2023-04-12T20:59:52.144Z,7.3
2023-04-12T21:07:23.332Z,7.2
2023-04-12T21:12:59.284Z,6.8
2023-04-12T21:18:50.939Z,6.2
2023-04-12T21:24:41.731Z,6.1
2023-04-12T21:30:33.154Z,5.9
2023-04-12T21:36:25.050Z,5.3
2023-04-12T21:42:16.441Z,5.3
2023-04-12T21:48:08.242Z,5
2023-04-12T21:54:03.430Z,5.1
2023-04-12T21:59:57.190Z,4.9
2023-04-12T22:05:34.593Z,4.8
2023-04-12T22:11:23.260Z,4.9
2023-04-12T22:17:15.034Z,4.8
2023-04-12T22:22:51.014Z,4.8
2023-04-12T22:28:28.057Z,4.6
2023-04-12T22:34:04.575Z,4.6
2023-04-12T22:40:10.299Z,4.8
2023-04-12T22:46:01.883Z,5
2023-04-12T22:51:53.557Z,5.1
2023-04-12T22:57:44.856Z,4.7
2023-04-12T23:03:40.831Z,4.6
2023-04-12T23:09:31.873Z,4.6
2023-04-12T23:15:07.585Z,4.4
2023-04-12T23:20:59.679Z,4.2
2023-04-12T23:26:51.478Z,3.6
2023-04-12T23:32:28.252Z,3.1
2023-04-12T23:38:04.146Z,2.8
2023-04-12T23:43:55.097Z,2.5
2023-04-12T23:49:46.594Z,2
2023-04-12T23:55:38.437Z,1.8
